Lincoln Thomas — WD12740 — position and weather

sailwx.info

Track history (hours):
 
Tides and Currents Weather Stations Pressure Air Temp Water Temp Dewpoint Dewpoint Depression Visibility Wind Speed Wind Dir Waves Ship Positions

Lincoln Thomas

Last reported at 2018-May-18 08:16 UTC. Time now 2018-May-25 01:19 UTC.
Position N 29°47' W 095°06'.

Length 20 m; draft 3 m.

Type: Towing. MMSI: 367812300.

Date/timePositionNaut miles runAvg speedWind from/ knotsBaromVisibWave heightAir tempDewpointWater temp
2018-May-18 08:16N 29°47' W 095°06'0 0.0
2018-May-18 08:00N 29°47' W 095°06'0 0.0
2018-May-18 07:30N 29°47' W 095°06'0 0.0
2018-May-18 06:57N 29°47' W 095°06'0 0.0
2018-May-18 06:27N 29°47' W 095°06'0 0.0
2018-May-18 05:48N 29°47' W 095°06'0 0.0
2018-May-18 05:24N 29°47' W 095°06'0 0.0
2018-May-18 04:51N 29°47' W 095°06'0 0.0
2018-May-18 04:30N 29°47' W 095°06'0 0.0
2018-May-18 03:33N 29°47' W 095°06'0 0.0
2018-May-18 03:24N 29°47' W 095°06'0 0.0
2018-May-16 14:23N 29°47' W 095°06'0 0.1
2018-May-16 13:42N 29°47' W 095°06'0 0.2
2018-May-16 13:03N 29°47' W 095°06'0 0.0
2018-May-16 12:42N 29°47' W 095°06'0 0.0
2018-May-16 08:32N 29°47' W 095°06'0 0.0
2018-May-16 08:05N 29°47' W 095°06'0 0.0
2018-May-16 07:59N 29°47' W 095°06'0 0.0
2018-May-16 04:17N 29°47' W 095°06'0 0.0
2018-May-16 03:53N 29°47' W 095°06'0 0.0
2018-May-16 03:02N 29°47' W 095°06'0 0.0
2018-May-16 02:59N 29°47' W 095°06'0 0.0
2018-May-15 03:25N 29°47' W 095°06'0 0.0
2018-May-15 02:49N 29°47' W 095°06'  
2018-May-11 00:59N 29°45' W 095°06'3 5.3
2018-May-11 00:26N 29°45' W 095°10'1 0.1
2018-May-10 15:22N 29°45' W 095°11'3 6.1
2018-May-10 14:54N 29°44' W 095°07'3 2.1
2018-May-10 13:28N 29°47' W 095°06'2 3.7
2018-May-10 13:00N 29°45' W 095°06'1 2.7
2018-May-10 12:30N 29°44' W 095°07'3 5.2
2018-May-10 12:01N 29°44' W 095°10'0 0.1
2018-May-10 11:19N 29°44' W 095°10'0 0.1
2018-May-10 10:52N 29°44' W 095°10'0 0.0
2018-May-10 10:25N 29°44' W 095°10'0 0.0
2018-May-10 08:11N 29°44' W 095°10'0 0.1
2018-May-10 07:47N 29°44' W 095°10'0 0.4
2018-May-10 07:30N 29°44' W 095°10'1 2.1
2018-May-10 06:58N 29°44' W 095°08'1 1.9
2018-May-10 06:28N 29°44' W 095°07'1 3.1
2018-May-10 06:00N 29°45' W 095°06'2 3.6
2018-May-10 05:30N 29°45' W 095°04'3 5.4
2018-May-10 05:00N 29°43' W 095°01'3 5.2
2018-May-10 04:30N 29°41' W 094°59'3 6.1
2018-May-10 04:00N 29°39' W 094°58'3 6.3
2018-May-10 03:30N 29°36' W 094°57'3 6.6
2018-May-10 03:00N 29°33' W 094°54'3 6.7
2018-May-10 02:30N 29°30' W 094°52'3 6.6
2018-May-10 02:00N 29°27' W 094°51'3 6.7
2018-May-10 01:30N 29°24' W 094°49'4 4.0
2018-May-10 00:34N 29°24' W 094°45'0 6.0
2018-May-10 00:30N 29°25' W 094°44'4 5.3
2018-May-09 23:41N 29°27' W 094°41'15 3.4
2018-May-09 19:17N 29°34' W 094°25'1 3.9
2018-May-09 19:00N 29°35' W 094°25'2 3.4
2018-May-09 18:30N 29°36' W 094°23'3 3.8
2018-May-09 17:35N 29°37' W 094°20'1 4.6
2018-May-09 17:23N 29°38' W 094°19'2 4.7
2018-May-09 17:00N 29°39' W 094°17'2 4.9
2018-May-09 16:31N 29°40' W 094°14'2 4.8
2018-May-09 16:01N 29°41' W 094°12'2 5.0
2018-May-09 15:30N 29°42' W 094°09'2 5.0
2018-May-09 15:00N 29°43' W 094°07'2 4.4
2018-May-09 14:30N 29°45' W 094°05'3 5.1
2018-May-09 14:01N 29°46' W 094°03'3 5.1
2018-May-09 13:31N 29°48' W 094°00'3 5.2
2018-May-09 13:01N 29°49' W 093°58'3 5.7
2018-May-09 12:30N 29°52' W 093°56'3 6.6
2018-May-09 12:00N 29°54' W 093°54'3 6.5
2018-May-09 11:30N 29°57' W 093°52'2 4.8
2018-May-09 11:00N 29°59' W 093°50'3 5.7
2018-May-09 10:30N 29°60' W 093°47'3 5.3
2018-May-09 10:00N 30°01' W 093°44'2 4.7
2018-May-09 09:31N 30°03' W 093°43'2 4.7
2018-May-09 09:00N 30°04' W 093°40'3 4.9
2018-May-09 08:28N 30°04' W 093°37'2 4.4
2018-May-09 08:00N 30°04' W 093°34'2 4.4
2018-May-09 07:31N 30°04' W 093°32'2 4.4
2018-May-09 07:00N 30°04' W 093°29'2 4.4
2018-May-09 06:30N 30°04' W 093°27'2 4.3
2018-May-09 06:00N 30°04' W 093°24'2 4.0
2018-May-09 05:30N 30°04' W 093°22'1 2.7
2018-May-09 05:00N 30°04' W 093°21'2 3.7
2018-May-09 04:30N 30°06' W 093°20'3 5.4
2018-May-09 04:00N 30°08' W 093°20'3 5.2
2018-May-09 03:30N 30°11' W 093°19'0 0.6
2018-May-09 03:00N 30°11' W 093°18'0 0.2
2018-May-09 02:30N 30°11' W 093°18'0 0.1
2018-May-09 02:00N 30°11' W 093°18'0 0.4
2018-May-09 01:30N 30°11' W 093°19'0 0.0
2018-May-09 01:00N 30°11' W 093°19'0 0.0
2018-May-09 00:30N 30°11' W 093°19'0 0.0
2018-May-09 00:00N 30°11' W 093°19'0 0.0
2018-May-08 23:30N 30°11' W 093°19'0 0.0
2018-May-08 23:00N 30°11' W 093°19'0 0.0
2018-May-08 22:30N 30°11' W 093°19'0 0.0
2018-May-08 22:00N 30°11' W 093°19'0 0.0
2018-May-08 21:30N 30°11' W 093°19'0 0.0
2018-May-08 21:00N 30°11' W 093°19'0 0.0
2018-May-08 20:31N 30°11' W 093°19'0 0.0
2018-May-08 20:00N 30°11' W 093°19'0 0.0
2018-May-08 19:30N 30°11' W 093°19'0 0.0
2018-May-08 19:00N 30°11' W 093°19'0 0.0
2018-May-08 18:31N 30°11' W 093°19'0 0.0
2018-May-08 18:00N 30°11' W 093°19'0 0.0
2018-May-08 17:31N 30°11' W 093°19'0 0.0
2018-May-08 17:00N 30°11' W 093°19'0 0.0
2018-May-08 16:30N 30°11' W 093°19'0 0.0
2018-May-08 16:00N 30°11' W 093°19'0 0.0
2018-May-08 15:30N 30°11' W 093°19'0 0.0
2018-May-08 14:58N 30°11' W 093°19'0 0.0
2018-May-08 14:30N 30°11' W 093°19'0 0.0
2018-May-08 13:59N 30°11' W 093°19'0 0.0
2018-May-08 13:30N 30°11' W 093°19'0 0.0
2018-May-08 13:00N 30°11' W 093°19'0 0.0
2018-May-08 12:31N 30°11' W 093°19'0 0.0
2018-May-08 12:00N 30°11' W 093°19'0 0.0
2018-May-08 11:30N 30°11' W 093°19'0 0.0
2018-May-08 10:59N 30°11' W 093°19'0 0.0
2018-May-08 10:30N 30°11' W 093°19'0 0.0
2018-May-08 10:00N 30°11' W 093°19'0 0.0
2018-May-08 09:27N 30°11' W 093°19'0 0.0
2018-May-08 09:00N 30°11' W 093°19'0 0.0
2018-May-08 08:30N 30°11' W 093°19'  
Track history (hours):
 
Tides and Currents Weather Stations Pressure Air Temp Water Temp Dewpoint Dewpoint Depression Visibility Wind Speed Wind Dir Waves Ship Positions

Lincoln Thomas

Last reported at 2018-May-18 08:16 UTC. Time now 2018-May-25 01:19 UTC.
Position N 29°47' W 095°06'.

Length 20 m; draft 3 m.

Type: Towing. MMSI: 367812300.

Date/timePositionNaut miles runAvg speedWind from/ knotsBaromVisibWave heightAir tempDewpointWater temp
2018-May-18 08:16N 29°47' W 095°06'0 0.0
2018-May-18 08:00N 29°47' W 095°06'0 0.0
2018-May-18 07:30N 29°47' W 095°06'0 0.0
2018-May-18 06:57N 29°47' W 095°06'0 0.0
2018-May-18 06:27N 29°47' W 095°06'0 0.0
2018-May-18 05:48N 29°47' W 095°06'0 0.0
2018-May-18 05:24N 29°47' W 095°06'0 0.0
2018-May-18 04:51N 29°47' W 095°06'0 0.0
2018-May-18 04:30N 29°47' W 095°06'0 0.0
2018-May-18 03:33N 29°47' W 095°06'0 0.0
2018-May-18 03:24N 29°47' W 095°06'0 0.0
2018-May-16 14:23N 29°47' W 095°06'0 0.1
2018-May-16 13:42N 29°47' W 095°06'0 0.2
2018-May-16 13:03N 29°47' W 095°06'0 0.0
2018-May-16 12:42N 29°47' W 095°06'0 0.0
2018-May-16 08:32N 29°47' W 095°06'0 0.0
2018-May-16 08:05N 29°47' W 095°06'0 0.0
2018-May-16 07:59N 29°47' W 095°06'0 0.0
2018-May-16 04:17N 29°47' W 095°06'0 0.0
2018-May-16 03:53N 29°47' W 095°06'0 0.0
2018-May-16 03:02N 29°47' W 095°06'0 0.0
2018-May-16 02:59N 29°47' W 095°06'0 0.0
2018-May-15 03:25N 29°47' W 095°06'0 0.0
2018-May-15 02:49N 29°47' W 095°06'  
2018-May-11 00:59N 29°45' W 095°06'3 5.3
2018-May-11 00:26N 29°45' W 095°10'1 0.1
2018-May-10 15:22N 29°45' W 095°11'3 6.1
2018-May-10 14:54N 29°44' W 095°07'3 2.1
2018-May-10 13:28N 29°47' W 095°06'2 3.7
2018-May-10 13:00N 29°45' W 095°06'1 2.7
2018-May-10 12:30N 29°44' W 095°07'3 5.2
2018-May-10 12:01N 29°44' W 095°10'0 0.1
2018-May-10 11:19N 29°44' W 095°10'0 0.1
2018-May-10 10:52N 29°44' W 095°10'0 0.0
2018-May-10 10:25N 29°44' W 095°10'0 0.0
2018-May-10 08:11N 29°44' W 095°10'0 0.1
2018-May-10 07:47N 29°44' W 095°10'0 0.4
2018-May-10 07:30N 29°44' W 095°10'1 2.1
2018-May-10 06:58N 29°44' W 095°08'1 1.9
2018-May-10 06:28N 29°44' W 095°07'1 3.1
2018-May-10 06:00N 29°45' W 095°06'2 3.6
2018-May-10 05:30N 29°45' W 095°04'3 5.4
2018-May-10 05:00N 29°43' W 095°01'3 5.2
2018-May-10 04:30N 29°41' W 094°59'3 6.1
2018-May-10 04:00N 29°39' W 094°58'3 6.3
2018-May-10 03:30N 29°36' W 094°57'3 6.6
2018-May-10 03:00N 29°33' W 094°54'3 6.7
2018-May-10 02:30N 29°30' W 094°52'3 6.6
2018-May-10 02:00N 29°27' W 094°51'3 6.7
2018-May-10 01:30N 29°24' W 094°49'4 4.0
2018-May-10 00:34N 29°24' W 094°45'0 6.0
2018-May-10 00:30N 29°25' W 094°44'4 5.3
2018-May-09 23:41N 29°27' W 094°41'15 3.4
2018-May-09 19:17N 29°34' W 094°25'1 3.9
2018-May-09 19:00N 29°35' W 094°25'2 3.4
2018-May-09 18:30N 29°36' W 094°23'3 3.8
2018-May-09 17:35N 29°37' W 094°20'1 4.6
2018-May-09 17:23N 29°38' W 094°19'2 4.7
2018-May-09 17:00N 29°39' W 094°17'2 4.9
2018-May-09 16:31N 29°40' W 094°14'2 4.8
2018-May-09 16:01N 29°41' W 094°12'2 5.0
2018-May-09 15:30N 29°42' W 094°09'2 5.0
2018-May-09 15:00N 29°43' W 094°07'2 4.4
2018-May-09 14:30N 29°45' W 094°05'3 5.1
2018-May-09 14:01N 29°46' W 094°03'3 5.1
2018-May-09 13:31N 29°48' W 094°00'3 5.2
2018-May-09 13:01N 29°49' W 093°58'3 5.7
2018-May-09 12:30N 29°52' W 093°56'3 6.6
2018-May-09 12:00N 29°54' W 093°54'3 6.5
2018-May-09 11:30N 29°57' W 093°52'2 4.8
2018-May-09 11:00N 29°59' W 093°50'3 5.7
2018-May-09 10:30N 29°60' W 093°47'3 5.3
2018-May-09 10:00N 30°01' W 093°44'2 4.7
2018-May-09 09:31N 30°03' W 093°43'2 4.7
2018-May-09 09:00N 30°04' W 093°40'3 4.9
2018-May-09 08:28N 30°04' W 093°37'2 4.4
2018-May-09 08:00N 30°04' W 093°34'2 4.4
2018-May-09 07:31N 30°04' W 093°32'2 4.4
2018-May-09 07:00N 30°04' W 093°29'2 4.4
2018-May-09 06:30N 30°04' W 093°27'2 4.3
2018-May-09 06:00N 30°04' W 093°24'2 4.0
2018-May-09 05:30N 30°04' W 093°22'1 2.7
2018-May-09 05:00N 30°04' W 093°21'2 3.7
2018-May-09 04:30N 30°06' W 093°20'3 5.4
2018-May-09 04:00N 30°08' W 093°20'3 5.2
2018-May-09 03:30N 30°11' W 093°19'0 0.6
2018-May-09 03:00N 30°11' W 093°18'0 0.2
2018-May-09 02:30N 30°11' W 093°18'0 0.1
2018-May-09 02:00N 30°11' W 093°18'0 0.4
2018-May-09 01:30N 30°11' W 093°19'0 0.0
2018-May-09 01:00N 30°11' W 093°19'0 0.0
2018-May-09 00:30N 30°11' W 093°19'0 0.0
2018-May-09 00:00N 30°11' W 093°19'0 0.0
2018-May-08 23:30N 30°11' W 093°19'0 0.0
2018-May-08 23:00N 30°11' W 093°19'0 0.0
2018-May-08 22:30N 30°11' W 093°19'0 0.0
2018-May-08 22:00N 30°11' W 093°19'0 0.0
2018-May-08 21:30N 30°11' W 093°19'0 0.0
2018-May-08 21:00N 30°11' W 093°19'0 0.0
2018-May-08 20:31N 30°11' W 093°19'0 0.0
2018-May-08 20:00N 30°11' W 093°19'0 0.0
2018-May-08 19:30N 30°11' W 093°19'0 0.0
2018-May-08 19:00N 30°11' W 093°19'0 0.0
2018-May-08 18:31N 30°11' W 093°19'0 0.0
2018-May-08 18:00N 30°11' W 093°19'0 0.0
2018-May-08 17:31N 30°11' W 093°19'0 0.0
2018-May-08 17:00N 30°11' W 093°19'0 0.0
2018-May-08 16:30N 30°11' W 093°19'0 0.0
2018-May-08 16:00N 30°11' W 093°19'0 0.0
2018-May-08 15:30N 30°11' W 093°19'0 0.0
2018-May-08 14:58N 30°11' W 093°19'0 0.0
2018-May-08 14:30N 30°11' W 093°19'0 0.0
2018-May-08 13:59N 30°11' W 093°19'0 0.0
2018-May-08 13:30N 30°11' W 093°19'0 0.0
2018-May-08 13:00N 30°11' W 093°19'0 0.0
2018-May-08 12:31N 30°11' W 093°19'0 0.0
2018-May-08 12:00N 30°11' W 093°19'0 0.0
2018-May-08 11:30N 30°11' W 093°19'0 0.0
2018-May-08 10:59N 30°11' W 093°19'0 0.0
2018-May-08 10:30N 30°11' W 093°19'0 0.0
2018-May-08 10:00N 30°11' W 093°19'0 0.0
2018-May-08 09:27N 30°11' W 093°19'0 0.0
2018-May-08 09:00N 30°11' W 093°19'0 0.0
2018-May-08 08:30N 30°11' W 093°19'  

Dump ship's entire track history